Aérodrome :
LOGIN :

S'inscrire | Disclaimer

   EN    FR    IT 

 










Légende :    VFR   VFR Marginal   IFR   IFR Intensif   IFR Très Intensif
Visi : 
Plafond : 
>= 8 km
>= 3000ft
5 à 8 km
1000 à 3000 ft
1500m à 5 km
500 à 1000 ft
800 à 1500m
200 à 500 ft
< 800m
< 200 ft
Symboles :   Orages  Brouillard  Fortes neiges  Fortes précipitations  Vent > 20 kt
SIGMETs :   Divers  Orages  Givrage  Turbulence  Onde Orograph.  Cendres Volcan.







- Altitude de l'aérodrome : 277 ft
- Code IATA : JER
- Voir les cartes d'approche


EGJJ - Jersey

DERNIER METAR :
  • 170350Z AUTO 25006KT 9999 FEW016/// 13/10 Q1021

METARs EXPIRÉS :
  • 170320Z AUTO 25006KT 9999 FEW015/// 13/10 Q1021
  • 170250Z AUTO 26007KT CAVOK 13/10 Q1021
  • 170220Z AUTO 26010KT CAVOK 13/10 Q1021
  • 170150Z AUTO 25010KT CAVOK 14/11 Q1022
  • 170120Z AUTO 25010KT CAVOK 13/11 Q1022

TAF TAF EGJJ
Valide du 17 à 03h jusqu'au 17 à 12h UTC


170157Z 1703/1712 26010KT 9999 SCT025
BECMG 1703/1706 VRB04KT
PROB30
TEMPO 1703/1709 5000 SHRA
ATIS : +44 1534 498 073
Pas de NOTAMs connus pour ce terrain.
1 SIGMET publié pour la FIR Brest (LFRR) :
 
Orages noyés dans la masse
LFRR SIGMET 1 VALID 170300/170500 LFPW
LFRR BREST FIR/UIR EMBD TS OBS WI N4430 W00530 - N4500 W00800 - N4745 W00800 - N4745 W00445 TOP FL380 MOV NE 15KT NC=



MET'MAP, la Météo Aéronautique d'un coup d'oeil ! - Copyright ORBIFLY Décembre 2007 - Disclaimer

ORBIFLY MET'MAP TEAM :

Programmation & Développement : Alexandra Zaïnal
Conception & Développement : Baudouin d'Aumeries
Co-Programmation & Développement : Marc-Olivier Méhu
Soutien technique & logistique : Manuel Goepfert

Contact : metmap@orbifly.com




SOURCES & CREDITS :

   NOAA